Time;durP1;ratioP1;P1;durP2;ratioP2;P2;SDS_P1;SDS_P2;PMS_P1;PMS_P2;Temp;Humidity;BMP_temperature;BMP_pressure;BME280_temperature;BME280_humidity;BME280_pressure;Samples;Min_cycle;Max_cycle;Signal;HPM_P1;HPM_P2
2021/08/29 13:27:15;;;;;;;1.85;0.98;;;;;;;25.74;42.51;99729.64;1325744;93;21714;-93
2021/08/29 13:29:43;;;;;;;1.27;1.00;;;;;;;25.49;42.88;99730.86;1336035;93;21335;-85
2021/08/29 13:32:12;;;;;;;3.00;0.80;;;;;;;25.38;41.14;99720.54;1348949;90;21268;-87
2021/08/29 13:34:40;;;;;;;1.30;1.10;;;;;;;25.69;43.03;99723.38;1347177;91;21320;-86
2021/08/29 13:37:10;;;;;;;1.65;0.80;;;;;;;25.61;42.43;99716.05;1346896;91;22295;-86
2021/08/29 13:39:42;;;;;;;1.15;0.53;;;;;;;25.71;42.35;99710.39;1347268;92;21350;-85
2021/08/29 13:42:20;;;;;;;1.35;0.98;;;;;;;25.95;41.94;99699.92;1346597;92;22729;-84
2021/08/29 13:44:56;;;;;;;1.17;1.07;;;;;;;26.32;42.19;99699.73;1346478;90;21261;-85
2021/08/29 13:47:23;;;;;;;2.25;1.30;;;;;;;26.97;41.75;99690.55;1346834;92;21460;-85
2021/08/29 13:49:52;;;;;;;1.35;1.00;;;;;;;27.75;40.96;99687.34;1347255;92;21527;-85
2021/08/29 13:52:23;;;;;;;0.90;0.90;;;;;;;28.22;36.55;99683.28;1346889;92;21335;-85
2021/08/29 13:54:50;;;;;;;0.90;0.80;;;;;;;28.57;38.21;99680.09;1346860;92;21541;-85
2021/08/29 13:57:17;;;;;;;0.80;0.80;;;;;;;28.40;34.87;99676.90;1339295;91;21655;-85
2021/08/29 13:59:45;;;;;;;0.80;0.80;;;;;;;28.59;34.53;99683.87;1304037;95;21344;-85
2021/08/29 14:02:12;;;;;;;1.60;1.00;;;;;;;28.60;35.07;99678.16;1303880;96;21513;-86
2021/08/29 14:04:39;;;;;;;0.98;0.93;;;;;;;28.66;36.57;99674.28;1303128;94;21359;-86
2021/08/29 14:07:06;;;;;;;0.80;0.80;;;;;;;28.93;35.48;99679.75;1304447;95;21526;-87
2021/08/29 14:09:33;;;;;;;2.25;1.20;;;;;;;29.37;34.19;99673.30;1304281;95;21375;-86
2021/08/29 14:12:00;;;;;;;0.95;0.88;;;;;;;29.49;34.84;99672.89;1302865;95;21345;-87
2021/08/29 14:14:31;;;;;;;3.47;1.00;;;;;;;29.16;34.87;99673.54;1303860;96;21337;-86
2021/08/29 14:16:58;;;;;;;0.88;0.88;;;;;;;29.33;34.65;99677.73;1305512;95;21366;-96
2021/08/29 14:19:25;;;;;;;0.95;0.95;;;;;;;28.95;34.67;99675.64;1306019;95;21391;-95
2021/08/29 14:21:52;;;;;;;1.20;0.80;;;;;;;28.62;34.84;99682.73;1306342;95;21314;-93
2021/08/29 14:24:19;;;;;;;1.00;0.90;;;;;;;28.30;34.51;99674.52;1333835;92;21457;-90
2021/08/29 14:26:47;;;;;;;0.80;0.80;;;;;;;28.38;35.14;99679.11;1319001;94;21399;-90
2021/08/29 14:29:14;;;;;;;1.00;1.00;;;;;;;28.95;35.13;99680.28;1340185;92;21357;-93
2021/08/29 14:31:41;;;;;;;2.45;1.02;;;;;;;29.05;34.47;99681.55;1325337;92;21332;-92
2021/08/29 14:34:09;;;;;;;1.70;1.00;;;;;;;29.18;32.37;99680.08;1309474;94;21332;-91
2021/08/29 14:36:36;;;;;;;0.75;0.60;;;;;;;29.59;33.59;99674.95;1307761;95;22403;-93
2021/08/29 14:39:05;;;;;;;3.50;1.05;;;;;;;28.51;34.27;99679.31;1325125;93;21454;-91
2021/08/29 14:41:34;;;;;;;3.42;0.80;;;;;;;28.15;34.78;99676.00;1340034;92;22334;-91
2021/08/29 14:44:02;;;;;;;0.70;0.70;;;;;;;28.34;34.55;99680.23;1339927;91;22444;-91
2021/08/29 14:46:29;;;;;;;1.22;0.90;;;;;;;27.68;34.81;99678.69;1340536;92;21540;-91
2021/08/29 14:48:56;;;;;;;0.90;0.90;;;;;;;27.01;35.26;99685.63;1324737;93;21414;-91
2021/08/29 14:51:23;;;;;;;1.10;0.90;;;;;;;27.77;35.54;99681.64;1340624;91;21364;-90
2021/08/29 14:57:38;;;;;;;6.03;1.00;;;;;;;28.02;35.92;99684.78;1303330;94;21390;-91
2021/08/29 15:00:07;;;;;;;1.20;0.80;;;;;;;27.26;36.40;99692.70;1302346;95;21429;-89
2021/08/29 15:02:35;;;;;;;4.28;0.72;;;;;;;26.78;37.36;99693.80;1304136;94;21400;-91
2021/08/29 15:06:00;;;;;;;3.37;0.70;;;;;;;26.00;38.54;99703.47;1298013;97;21289;-90
2021/08/29 15:08:28;;;;;;;1.62;0.85;;;;;;;25.35;39.35;99707.52;1296782;96;21386;-91
2021/08/29 15:10:56;;;;;;;3.37;0.90;;;;;;;24.28;41.52;99699.31;1300306;94;21431;-90
2021/08/29 15:13:26;;;;;;;0.70;0.70;;;;;;;23.90;42.90;99705.67;1297499;96;22714;-89
2021/08/29 15:16:23;;;;;;;1.40;0.93;;;;;;;23.36;42.55;99701.75;1285140;96;21453;-89
2021/08/29 15:18:56;;;;;;;2.98;0.95;;;;;;;22.78;45.65;99703.00;1298201;94;21508;-90
2021/08/29 15:21:24;;;;;;;1.30;1.00;;;;;;;22.58;45.48;99705.36;1300021;96;22229;-89
2021/08/29 15:23:57;;;;;;;1.57;0.98;;;;;;;22.07;46.80;99707.95;1299523;96;21557;-89
2021/08/29 15:26:24;;;;;;;4.20;1.25;;;;;;;21.92;46.87;99710.33;1266292;98;21469;-89
2021/08/29 15:28:51;;;;;;;1.55;1.22;;;;;;;21.62;47.81;99710.81;1282472;96;21526;-89
2021/08/29 15:31:19;;;;;;;1.20;1.10;;;;;;;21.38;48.72;99706.55;1282327;96;21481;-89
2021/08/29 15:33:47;;;;;;;1.60;1.47;;;;;;;21.28;49.65;99699.55;1297512;96;21304;-89
2021/08/29 15:36:15;;;;;;;2.25;1.37;;;;;;;21.00;51.07;99706.44;1351862;96;21442;-88
2021/08/29 15:38:49;;;;;;;1.57;1.47;;;;;;;20.95;50.29;99700.97;1353083;90;22334;-88
2021/08/29 15:41:18;;;;;;;1.40;0.93;;;;;;;20.86;50.69;99698.30;1332164;92;21343;-90
2021/08/29 15:43:50;;;;;;;1.92;1.20;;;;;;;20.73;52.01;99693.98;1335821;92;22385;-89
2021/08/29 15:46:18;;;;;;;2.20;1.25;;;;;;;20.57;51.86;99692.80;1352746;92;21276;-89
2021/08/29 15:48:46;;;;;;;1.45;1.35;;;;;;;20.43;52.11;99699.40;1335914;92;21505;-89
2021/08/29 15:51:14;;;;;;;2.60;1.00;;;;;;;20.34;52.40;99704.28;1335248;92;22083;-89
2021/08/29 15:54:49;;;;;;;1.30;1.20;;;;;;;20.36;53.26;99705.38;1353020;91;21388;-88
2021/08/29 15:57:18;;;;;;;5.65;1.22;;;;;;;20.26;52.77;99708.62;1353785;91;21439;-88
2021/08/29 15:59:46;;;;;;;3.45;1.05;;;;;;;20.18;53.54;99706.26;1343626;93;21342;-90
2021/08/29 16:02:16;;;;;;;1.20;1.10;;;;;;;20.13;54.41;99702.90;1367372;89;22368;-93
2021/08/29 16:04:50;;;;;;;1.92;1.30;;;;;;;20.15;53.78;99704.03;1367119;90;21334;-91
2021/08/29 16:07:27;;;;;;;1.60;1.50;;;;;;;20.12;54.17;99701.27;1370095;90;22229;-95
2021/08/29 16:10:07;;;;;;;1.32;1.22;;;;;;;19.98;54.02;99707.87;1364078;90;21240;-93
2021/08/29 16:12:39;;;;;;;5.57;1.30;;;;;;;19.85;55.09;99707.49;1351807;90;21219;-94
2021/08/29 16:15:09;;;;;;;3.37;1.42;;;;;;;19.86;54.07;99709.69;1351008;92;22380;-93
2021/08/29 16:17:36;;;;;;;3.05;1.27;;;;;;;19.78;54.82;99713.48;1350699;90;21519;-93
2021/08/29 16:20:06;;;;;;;1.87;1.07;;;;;;;19.69;54.92;99708.94;1349564;92;21321;-93
2021/08/29 16:22:34;;;;;;;1.00;1.00;;;;;;;19.54;55.21;99713.84;1350306;92;21307;-93
2021/08/29 16:28:49;;;;;;;1.35;1.20;;;;;;;19.36;55.72;99702.06;1356604;90;21385;-93
2021/08/29 16:31:16;;;;;;;2.22;1.55;;;;;;;19.20;57.29;99688.41;1361464;90;21313;-92
2021/08/29 16:33:47;;;;;;;1.62;1.17;;;;;;;19.18;56.86;99693.16;1362714;89;21319;-91
2021/08/29 16:36:14;;;;;;;0.98;0.95;;;;;;;19.09;57.41;99708.20;1341677;91;22229;-94
2021/08/29 16:39:06;;;;;;;1.95;1.40;;;;;;;19.02;58.06;99705.27;1342059;91;22280;-92
2021/08/29 16:41:52;;;;;;;1.20;1.10;;;;;;;18.93;58.14;99708.25;1365476;89;21276;-95
2021/08/29 16:44:25;;;;;;;1.80;1.43;;;;;;;18.82;58.70;99702.26;1345335;91;22770;-92
2021/08/29 16:46:53;;;;;;;1.73;1.40;;;;;;;18.79;59.10;99713.42;1363768;89;22235;-93
2021/08/29 16:49:20;;;;;;;1.87;1.40;;;;;;;18.66;59.28;99706.78;1362760;90;22785;-91
2021/08/29 16:51:50;;;;;;;2.47;1.67;;;;;;;18.57;59.38;99711.59;1359971;90;22163;-92
2021/08/29 16:54:17;;;;;;;1.70;1.60;;;;;;;18.49;59.76;99714.00;1365773;89;21328;-94
2021/08/29 16:56:45;;;;;;;2.13;1.80;;;;;;;18.38;61.30;99716.03;1364517;91;21284;-94
2021/08/29 16:59:13;;;;;;;4.17;1.67;;;;;;;18.33;60.22;99717.22;1364605;89;21335;-94
2021/08/29 17:01:41;;;;;;;3.30;1.60;;;;;;;18.25;60.85;99712.92;1363952;91;21312;-94
2021/08/29 17:04:09;;;;;;;2.30;1.27;;;;;;;18.17;61.42;99715.85;1364313;89;21466;-95
2021/08/29 17:06:38;;;;;;;1.33;1.20;;;;;;;18.02;62.27;99713.46;1364042;89;22303;-94
2021/08/29 17:09:13;;;;;;;1.97;1.40;;;;;;;17.98;62.64;99718.11;1363825;90;22243;-95
2021/08/29 17:11:41;;;;;;;1.50;1.40;;;;;;;17.94;63.61;99720.39;1365826;90;21254;-95
2021/08/29 17:14:10;;;;;;;1.40;1.30;;;;;;;17.85;63.40;99724.34;1365798;90;22119;-93
2021/08/29 17:16:37;;;;;;;3.07;1.20;;;;;;;17.77;63.74;99716.00;1365040;90;22266;-95
2021/08/29 17:19:05;;;;;;;0.83;0.83;;;;;;;17.72;64.84;99710.97;1364976;90;21261;-94
2021/08/29 17:21:32;;;;;;;2.67;1.30;;;;;;;17.67;64.30;99708.13;1364699;90;21239;-94
2021/08/29 17:24:10;;;;;;;9.57;1.10;;;;;;;17.58;65.04;99701.67;1365052;89;21404;-94
2021/08/29 17:26:37;;;;;;;1.00;1.00;;;;;;;17.52;65.65;99709.21;1364975;91;21239;-95
2021/08/29 17:29:05;;;;;;;4.00;1.00;;;;;;;17.46;66.90;99718.05;1364396;89;21438;-94
2021/08/29 17:31:37;;;;;;;1.00;0.90;;;;;;;17.47;65.99;99719.71;1365122;89;21364;-93
2021/08/29 17:34:05;;;;;;;1.13;0.80;;;;;;;17.40;67.28;99721.56;1359128;91;21454;-93
2021/08/29 17:36:34;;;;;;;2.00;0.70;;;;;;;17.35;66.33;99720.05;1328951;91;21505;-94
2021/08/29 17:39:02;;;;;;;0.80;0.80;;;;;;;17.28;66.51;99718.71;1345849;92;21336;-94
2021/08/29 17:41:29;;;;;;;0.93;0.90;;;;;;;17.05;68.82;99721.83;1349055;89;21224;-94
2021/08/29 17:43:57;;;;;;;0.80;0.80;;;;;;;17.10;67.03;99711.34;1360678;91;22089;-94
2021/08/29 17:46:27;;;;;;;0.80;0.80;;;;;;;17.10;67.11;99726.56;1337517;89;22739;-93
2021/08/29 17:48:55;;;;;;;2.37;1.00;;;;;;;17.02;68.77;99737.46;1358707;91;21305;-93
2021/08/29 17:51:23;;;;;;;2.77;0.80;;;;;;;17.03;68.24;99760.48;1357980;89;21269;-93
2021/08/29 17:53:52;;;;;;;1.13;0.80;;;;;;;17.04;67.86;99766.97;1360690;90;21261;-94
2021/08/29 17:56:21;;;;;;;1.73;0.83;;;;;;;17.08;68.10;99784.23;1352007;90;21327;-94
2021/08/29 17:58:48;;;;;;;1.40;1.10;;;;;;;17.09;68.20;99777.03;1356373;91;21482;-93
2021/08/29 18:01:16;;;;;;;1.10;1.00;;;;;;;17.04;68.47;99771.50;1342698;91;21599;-93
2021/08/29 18:03:49;;;;;;;1.70;1.00;;;;;;;17.05;68.09;99776.62;1341626;91;22200;-92
2021/08/29 18:06:38;;;;;;;1.40;0.90;;;;;;;17.05;68.09;99782.49;1353038;91;22147;-92
2021/08/29 18:09:06;;;;;;;1.17;0.80;;;;;;;17.00;69.46;99790.30;1345381;91;21409;-93
2021/08/29 18:11:33;;;;;;;1.13;1.03;;;;;;;16.94;69.23;99782.58;1353279;89;22184;-92
2021/08/29 18:14:03;;;;;;;3.27;1.00;;;;;;;16.92;69.20;99783.33;1359028;89;22185;-92
2021/08/29 18:16:31;;;;;;;0.95;0.88;;;;;;;16.93;69.16;99795.65;1360339;89;22054;-93
2021/08/29 18:18:59;;;;;;;1.33;0.90;;;;;;;16.97;69.21;99807.56;1359462;89;22177;-93
2021/08/29 18:21:26;;;;;;;3.07;0.87;;;;;;;17.01;69.28;99810.16;1359314;89;22207;-92
2021/08/29 18:23:53;;;;;;;1.07;0.90;;;;;;;17.00;69.75;99807.16;1358985;89;22221;-92
2021/08/29 18:26:23;;;;;;;2.10;1.20;;;;;;;16.97;69.70;99800.88;1359435;89;21503;-92
2021/08/29 18:28:50;;;;;;;1.77;1.40;;;;;;;16.96;69.57;99796.58;1343165;92;21350;-91
2021/08/29 18:31:18;;;;;;;7.77;1.53;;;;;;;16.94;69.60;99793.27;1355215;91;21519;-90
2021/08/29 18:33:52;;;;;;;1.33;1.23;;;;;;;16.90;69.55;99792.05;1335023;92;21321;-89
2021/08/29 18:36:20;;;;;;;3.37;1.33;;;;;;;16.87;69.35;99787.93;1335406;91;21365;-85
2021/08/29 18:38:48;;;;;;;2.23;0.87;;;;;;;16.84;69.59;99791.53;1334774;91;21269;-86
2021/08/29 18:41:16;;;;;;;1.40;1.17;;;;;;;16.76;69.78;99781.00;1341862;92;22333;-86
2021/08/29 18:43:44;;;;;;;3.13;1.30;;;;;;;16.63;70.42;99774.63;1351465;90;22304;-86
2021/08/29 18:46:12;;;;;;;1.40;1.13;;;;;;;16.59;70.32;99766.69;1349772;91;21284;-87
2021/08/29 18:48:48;;;;;;;1.80;1.20;;;;;;;16.59;70.44;99763.20;1349317;91;22134;-85
2021/08/29 18:51:16;;;;;;;4.37;1.33;;;;;;;16.54;70.64;99770.47;1348114;91;22207;-86
2021/08/29 18:53:43;;;;;;;1.87;1.30;;;;;;;16.54;71.13;99766.98;1344800;90;22185;-86
2021/08/29 18:56:12;;;;;;;1.23;0.90;;;;;;;16.46;71.26;99762.16;1330676;92;22385;-88
2021/08/29 18:58:40;;;;;;;1.80;1.00;;;;;;;16.44;71.03;99758.03;1330500;93;21336;-85
2021/08/29 19:01:09;;;;;;;0.93;0.83;;;;;;;16.40;71.55;99754.95;1330559;92;21351;-86
2021/08/29 19:03:37;;;;;;;2.77;1.00;;;;;;;16.31;71.64;99757.47;1330454;92;21343;-87
2021/08/29 19:06:05;;;;;;;1.67;1.00;;;;;;;16.24;71.83;99754.79;1330549;92;21276;-84
2021/08/29 19:08:32;;;;;;;1.80;0.90;;;;;;;16.20;72.14;99745.55;1331176;92;21454;-85
2021/08/29 19:11:00;;;;;;;1.07;0.97;;;;;;;16.16;72.39;99749.63;1330753;92;21284;-86
2021/08/29 19:13:28;;;;;;;2.07;1.17;;;;;;;16.14;72.13;99742.35;1330443;92;21469;-85
2021/08/29 19:15:59;;;;;;;4.47;1.73;;;;;;;16.13;72.25;99742.02;1334506;92;21660;-96
2021/08/29 19:21:04;;;;;;;1.20;0.93;;;;;;;16.08;72.56;99754.31;1401436;87;21842;-93
2021/08/29 19:23:32;;;;;;;5.10;1.00;;;;;;;16.06;73.30;99763.88;1378760;88;21275;-94
2021/08/29 19:25:59;;;;;;;1.93;1.03;;;;;;;16.07;73.04;99766.03;1378465;89;21297;-93
2021/08/29 19:28:26;;;;;;;1.90;1.10;;;;;;;16.07;73.17;99776.70;1377936;89;22306;-93
2021/08/29 19:30:54;;;;;;;2.73;0.87;;;;;;;16.07;73.27;99774.85;1378850;88;21327;-94
2021/08/29 19:33:21;;;;;;;0.70;0.70;;;;;;;16.07;73.59;99770.84;1379246;89;22683;-94
2021/08/29 19:35:49;;;;;;;1.03;0.80;;;;;;;16.12;73.44;99766.27;1378961;89;21305;-94
2021/08/29 19:38:17;;;;;;;0.70;0.70;;;;;;;16.05;74.57;99766.22;1378745;89;21282;-94
2021/08/29 19:40:45;;;;;;;2.40;1.30;;;;;;;16.02;74.45;99767.95;1378673;88;21415;-95
2021/08/29 19:43:13;;;;;;;0.93;0.80;;;;;;;16.04;73.92;99762.42;1379076;89;21267;-94
2021/08/29 19:45:40;;;;;;;1.33;1.07;;;;;;;16.00;74.76;99758.00;1358918;91;21305;-94
2021/08/29 19:48:09;;;;;;;1.93;0.80;;;;;;;15.92;74.87;99764.84;1378786;89;21367;-94
2021/08/29 19:50:37;;;;;;;1.67;0.90;;;;;;;15.89;74.70;99765.23;1378444;89;21515;-94
2021/08/29 19:53:05;;;;;;;2.10;1.00;;;;;;;15.89;74.78;99769.24;1378764;89;22272;-94
2021/08/29 19:55:32;;;;;;;1.20;1.10;;;;;;;15.93;75.57;99775.81;1378252;89;21365;-94
2021/08/29 19:58:00;;;;;;;0.97;0.87;;;;;;;15.92;75.39;99782.19;1378416;89;22102;-94
2021/08/29 20:00:38;;;;;;;1.60;0.87;;;;;;;15.90;75.45;99772.21;1378791;89;21238;-94
2021/08/29 20:03:13;;;;;;;0.80;0.80;;;;;;;15.89;75.18;99774.58;1378422;89;21437;-95
2021/08/29 20:05:35;;;;;;;1.10;0.90;;;;;;;15.87;75.34;99761.94;1376250;89;21496;-92
2021/08/29 20:08:09;;;;;;;1.37;1.27;;;;;;;15.82;75.95;99757.70;1376893;89;22110;-95
2021/08/29 20:11:13;;;;;;;1.90;1.80;;;;;;;15.82;75.47;99760.37;1374857;90;21207;-95
2021/08/29 20:14:08;;;;;;;3.53;1.10;;;;;;;15.84;76.11;99763.16;1378726;90;21339;-95
2021/08/29 20:24:06;;;;;;;1.83;1.70;;;;;;;15.69;76.98;99763.28;1359895;91;21794;-95
2021/08/29 20:26:44;;;;;;;;;;;;;;;;;;;;;
2021/08/29 20:34:27;;;;;;;2.10;1.00;;;;;;;15.58;77.57;99761.95;1397924;87;21560;-95
2021/08/29 20:40:05;;;;;;;1.43;0.83;;;;;;;15.63;77.36;99757.89;1380358;86;21633;31
2021/08/29 20:42:45;;;;;;;;;;;;;;;;;;;;;
2021/08/29 20:48:25;;;;;;;1.47;1.37;;;;;;;15.70;76.86;99774.27;1369144;87;23871;31
2021/08/29 21:05:14;;;;;;;1.10;1.00;;;;;;;15.65;77.95;99770.50;1380788;87;21684;31
2021/08/29 21:10:15;;;;;;;4.03;1.57;;;;;;;15.49;78.56;99762.32;1384432;87;21938;31
2021/08/29 21:13:05;;;;;;;1.50;1.27;;;;;;;15.48;78.39;99758.02;1317187;92;21713;31
2021/08/29 21:24:00;;;;;;;1.50;1.20;;;;;;;15.45;78.25;99759.23;1371437;86;23978;31
2021/08/29 21:29:06;;;;;;;1.47;1.37;;;;;;;15.55;78.75;99768.20;1376243;87;21554;31
2021/08/29 21:32:12;;;;;;;;;;;;;;;;;;;;;
2021/08/29 21:34:47;;;;;;;;;;;;;;;;;;;;;
2021/08/29 21:37:16;;;;;;;1.93;1.10;;;;;;;15.44;80.50;99759.41;1312418;90;21665;31
2021/08/29 21:39:47;;;;;;;1.57;1.20;;;;;;;15.41;81.07;99759.28;1349445;88;22610;31
2021/08/29 21:42:15;;;;;;;1.40;1.20;;;;;;;15.39;80.85;99757.83;1342458;91;21442;-94
2021/08/29 22:32:50;;;;;;;1.73;1.10;;;;;;;15.28;82.70;99805.35;1237451;89;24387;-95
2021/08/29 22:35:35;;;;;;;1.93;0.97;;;;;;;15.26;83.34;99803.37;1352215;87;21673;31
2021/08/29 22:40:46;;;;;;;1.47;1.00;;;;;;;15.21;86.87;99796.46;1354374;90;21597;-86
2021/08/29 22:43:15;;;;;;;2.93;0.97;;;;;;;15.24;85.14;99800.59;1341168;92;21377;-85
2021/08/29 22:45:42;;;;;;;0.97;0.93;;;;;;;15.27;84.94;99801.02;1358223;91;21435;-85
2021/08/29 22:48:15;;;;;;;1.50;1.00;;;;;;;15.31;84.39;99799.63;1337775;92;21273;-85
2021/08/29 22:50:42;;;;;;;1.57;1.00;;;;;;;15.35;84.31;99793.40;1344186;92;21685;-86
2021/08/29 22:53:10;;;;;;;1.47;1.00;;;;;;;15.37;84.48;99789.22;1344357;92;21359;-86
2021/08/29 22:55:40;;;;;;;2.67;1.10;;;;;;;15.36;83.81;99785.70;1335881;92;22472;-85
2021/08/29 22:58:07;;;;;;;4.67;2.00;;;;;;;15.36;83.95;99785.70;1323319;93;21513;-85
2021/08/29 23:00:35;;;;;;;1.30;1.00;;;;;;;15.37;83.87;99779.37;1343462;92;21258;-86
2021/08/29 23:03:02;;;;;;;0.87;0.87;;;;;;;15.37;85.08;99773.22;1337798;92;21311;-86
2021/08/29 23:05:30;;;;;;;1.53;0.80;;;;;;;15.29;86.44;99767.00;1338146;92;22355;-87
2021/08/29 23:07:57;;;;;;;1.10;0.90;;;;;;;15.25;86.08;99771.60;1337040;92;22694;-86
2021/08/29 23:10:24;;;;;;;4.27;1.33;;;;;;;15.26;85.74;99774.05;1339760;92;21392;-86
2021/08/29 23:12:52;;;;;;;1.77;1.00;;;;;;;15.29;85.13;99779.00;1342505;92;21516;-86
2021/08/29 23:15:20;;;;;;;1.73;0.90;;;;;;;15.27;85.33;99775.69;1338191;92;21436;-86
2021/08/29 23:17:47;;;;;;;7.47;1.20;;;;;;;15.25;85.02;99775.09;1356658;91;21324;-85
2021/08/29 23:20:15;;;;;;;1.30;0.97;;;;;;;15.25;84.86;99780.42;1355723;91;21250;-85
2021/08/29 23:22:43;;;;;;;1.40;1.17;;;;;;;15.24;84.95;99777.42;1355737;91;22248;-86
2021/08/29 23:25:12;;;;;;;2.70;1.40;;;;;;;15.20;85.44;99768.17;1357805;91;22196;-85
2021/08/29 23:27:39;;;;;;;3.83;1.77;;;;;;;15.09;87.65;99761.52;1355770;91;22297;-86
2021/08/29 23:30:08;;;;;;;2.70;1.40;;;;;;;15.04;88.36;99755.12;1355696;91;21517;-86
2021/08/29 23:32:36;;;;;;;3.70;1.60;;;;;;;15.00;88.12;99753.36;1338435;92;21325;-86
2021/08/29 23:35:04;;;;;;;1.83;1.40;;;;;;;14.98;89.33;99750.56;1355880;91;21324;-85
2021/08/29 23:37:31;;;;;;;3.23;1.90;;;;;;;15.01;88.23;99747.52;1356911;91;21413;-85
2021/08/29 23:39:58;;;;;;;7.83;2.43;;;;;;;15.01;88.28;99743.00;1358796;90;21593;-85
2021/08/29 23:42:27;;;;;;;1.60;1.50;;;;;;;15.00;88.37;99732.55;1361744;91;22322;-85
2021/08/29 23:44:54;;;;;;;2.20;1.40;;;;;;;14.96;88.18;99729.94;1361869;90;21316;-85
2021/08/29 23:47:21;;;;;;;1.83;1.60;;;;;;;14.92;88.38;99730.02;1362136;90;21405;-85
2021/08/29 23:49:48;;;;;;;2.90;1.47;;;;;;;14.87;89.12;99726.59;1361784;91;21316;-85
2021/08/29 23:52:15;;;;;;;1.60;1.20;;;;;;;14.87;89.14;99718.12;1361862;90;21442;-85
2021/08/29 23:54:42;;;;;;;2.10;1.80;;;;;;;14.85;89.69;99716.14;1361697;90;22181;-85
2021/08/29 23:57:10;;;;;;;1.80;1.50;;;;;;;14.86;89.31;99720.95;1361814;91;21339;-86
2021/08/29 23:59:37;;;;;;;2.00;1.33;;;;;;;14.88;88.03;99725.59;1361856;90;21272;-85
